createdAt,value
2022-10-21T00:01:04.144Z,3.17
2022-10-21T00:03:32.032Z,3.25
2022-10-21T00:05:59.732Z,2.70
2022-10-21T00:08:27.929Z,3.22
2022-10-21T00:10:58.936Z,3.20
2022-10-21T00:13:29.561Z,2.78
2022-10-21T00:16:05.269Z,2.83
2022-10-21T00:18:35.667Z,3.42
2022-10-21T00:21:07.346Z,3.05
2022-10-21T00:23:35.951Z,3.50
2022-10-21T00:26:04.146Z,3.13
2022-10-21T00:28:32.454Z,3.30
2022-10-21T00:31:01.727Z,3.42
2022-10-21T00:33:30.049Z,3.22
2022-10-21T00:36:02.795Z,3.58
2022-10-21T00:38:30.862Z,3.90
2022-10-21T00:40:59.032Z,3.22
2022-10-21T00:43:30.542Z,2.80
2022-10-21T00:46:07.079Z,3.20
2022-10-21T00:48:42.039Z,4.22
2022-10-21T00:51:15.610Z,3.25
2022-10-21T00:53:48.894Z,4.22
2022-10-21T00:56:21.137Z,3.55
2022-10-21T00:58:51.273Z,3.25
2022-10-21T01:01:21.726Z,3.83
2022-10-21T01:03:50.237Z,3.10
2022-10-21T01:06:22.656Z,3.78
2022-10-21T01:08:52.826Z,3.78
2022-10-21T01:11:23.108Z,3.17
2022-10-21T01:14:33.849Z,3.63
2022-10-21T01:17:39.908Z,3.33
2022-10-21T01:20:35.544Z,3.65
2022-10-21T01:23:48.597Z,3.30
2022-10-21T01:27:05.517Z,3.53
2022-10-21T01:30:17.566Z,4.03
2022-10-21T01:35:50.677Z,2.40
2022-10-21T01:38:30.886Z,2.50
2022-10-21T01:41:09.387Z,2.33
2022-10-21T01:43:48.773Z,2.55
2022-10-21T01:46:26.842Z,2.45
2022-10-21T01:49:05.055Z,2.00
2022-10-21T01:51:33.232Z,1.90
2022-10-21T01:54:08.776Z,2.80
2022-10-21T01:56:39.963Z,2.95
2022-10-21T01:59:14.977Z,2.67
2022-10-21T02:01:47.053Z,2.65
2022-10-21T02:04:20.047Z,2.72
2022-10-21T02:06:47.886Z,3.40
2022-10-21T02:09:15.781Z,2.65
2022-10-21T02:11:48.152Z,3.35
2022-10-21T02:14:22.296Z,3.55
2022-10-21T02:16:53.461Z,3.42
2022-10-21T02:19:22.832Z,3.72
2022-10-21T02:21:57.013Z,3.00
2022-10-21T02:27:01.485Z,3.22
2022-10-21T02:29:36.554Z,3.38
2022-10-21T02:32:27.535Z,2.67
2022-10-21T02:35:16.827Z,2.95
2022-10-21T02:37:53.629Z,3.35
2022-10-21T02:40:31.071Z,3.10
2022-10-21T02:43:06.845Z,2.90
2022-10-21T02:45:39.362Z,2.50
2022-10-21T02:48:07.980Z,2.70
2022-10-21T02:50:37.107Z,2.95
2022-10-21T02:53:04.991Z,3.22
2022-10-21T02:55:32.709Z,2.88
2022-10-21T02:58:00.480Z,2.75
2022-10-21T03:00:32.074Z,2.83
2022-10-21T03:03:00.945Z,3.15
2022-10-21T03:05:28.977Z,2.85
2022-10-21T03:07:58.191Z,3.05
2022-10-21T03:10:26.054Z,3.25
2022-10-21T03:12:53.835Z,3.13
2022-10-21T03:15:21.760Z,3.38
2022-10-21T03:17:49.598Z,3.05
2022-10-21T03:20:17.752Z,3.20
2022-10-21T03:22:45.546Z,3.53
2022-10-21T03:25:15.153Z,3.53
2022-10-21T03:27:43.147Z,3.03
2022-10-21T03:30:11.930Z,3.28
2022-10-21T03:32:39.886Z,3.08
2022-10-21T03:35:09.264Z,3.17
2022-10-21T03:37:36.989Z,3.13
2022-10-21T03:40:09.934Z,3.22
2022-10-21T03:42:41.781Z,2.78
2022-10-21T03:45:11.150Z,2.90
2022-10-21T03:47:39.221Z,3.13
2022-10-21T03:50:11.910Z,2.85
2022-10-21T03:52:41.868Z,3.10
2022-10-21T03:55:10.320Z,2.95
2022-10-21T03:57:38.518Z,3.55
2022-10-21T04:00:09.944Z,3.60
2022-10-21T04:02:37.917Z,2.95
2022-10-21T04:05:07.137Z,3.03
2022-10-21T04:07:34.887Z,3.15
2022-10-21T04:10:02.774Z,3.35
2022-10-21T04:12:30.505Z,3.58
2022-10-21T04:14:58.237Z,3.85
2022-10-21T04:17:27.406Z,3.88
2022-10-21T04:19:55.082Z,3.58
2022-10-21T04:22:22.972Z,3.90
2022-10-21T04:24:50.752Z,3.90
2022-10-21T04:27:18.510Z,3.08
2022-10-21T04:29:46.249Z,3.47
2022-10-21T04:32:14.006Z,3.50
2022-10-21T04:34:43.117Z,3.53
2022-10-21T04:37:10.813Z,4.35
2022-10-21T04:39:38.701Z,4.05
2022-10-21T04:42:06.513Z,3.90
2022-10-21T04:44:34.329Z,3.67
2022-10-21T04:47:02.068Z,3.78
2022-10-21T04:49:29.761Z,4.13
2022-10-21T04:51:58.882Z,5.07
2022-10-21T04:54:26.647Z,4.50
2022-10-21T04:56:54.351Z,4.20
2022-10-21T04:59:22.072Z,4.03
2022-10-21T05:01:50.076Z,4.00
2022-10-21T05:04:17.847Z,3.92
2022-10-21T05:06:45.571Z,4.47
2022-10-21T05:09:15.009Z,4.40
2022-10-21T05:11:42.851Z,4.68
2022-10-21T05:14:10.714Z,4.55
2022-10-21T05:16:38.479Z,4.10
2022-10-21T05:19:06.641Z,4.22
2022-10-21T05:21:34.479Z,4.47
2022-10-21T05:24:02.284Z,4.15
2022-10-21T05:26:31.350Z,4.75
2022-10-21T05:28:59.408Z,4.57
2022-10-21T05:31:27.668Z,4.30
2022-10-21T05:33:55.414Z,3.88
2022-10-21T05:36:24.133Z,3.92
2022-10-21T05:38:52.538Z,4.18
2022-10-21T05:41:20.683Z,3.78
2022-10-21T05:43:49.731Z,4.13
2022-10-21T05:46:17.565Z,4.05
2022-10-21T05:48:45.333Z,3.58
2022-10-21T05:51:13.187Z,3.63
2022-10-21T05:53:40.966Z,3.80
2022-10-21T05:56:09.648Z,3.90
2022-10-21T05:58:37.511Z,3.90
2022-10-21T06:01:06.621Z,3.63
2022-10-21T06:03:34.976Z,3.67
2022-10-21T06:06:05.650Z,4.00
2022-10-21T06:08:36.804Z,3.75
2022-10-21T06:11:07.562Z,3.50
2022-10-21T06:13:36.473Z,3.20
2022-10-21T06:16:07.829Z,3.20
2022-10-21T06:18:36.008Z,3.65
2022-10-21T06:21:04.255Z,3.47
2022-10-21T06:23:32.649Z,3.78
2022-10-21T06:26:03.006Z,3.90
2022-10-21T06:28:35.082Z,4.22
2022-10-21T06:31:03.348Z,3.35
2022-10-21T06:33:32.557Z,3.67
2022-10-21T06:36:00.338Z,3.20
2022-10-21T06:38:28.164Z,3.03
2022-10-21T06:41:03.772Z,3.50
2022-10-21T06:43:32.226Z,3.40
2022-10-21T06:46:01.959Z,3.20
2022-10-21T06:48:29.949Z,3.42
2022-10-21T06:51:01.129Z,3.03
2022-10-21T06:53:29.543Z,3.08
2022-10-21T06:56:05.149Z,3.33
2022-10-21T06:58:33.240Z,3.00
2022-10-21T07:01:01.021Z,4.35
2022-10-21T07:03:28.722Z,3.33
2022-10-21T07:06:01.616Z,3.55
2022-10-21T07:08:46.327Z,3.33
2022-10-21T07:11:16.018Z,3.60
2022-10-21T07:13:43.942Z,3.05
2022-10-21T07:16:20.218Z,3.10
2022-10-21T07:18:48.288Z,2.85
2022-10-21T07:21:21.188Z,3.30
2022-10-21T07:23:52.026Z,3.40
2022-10-21T07:26:22.728Z,2.63
2022-10-21T07:28:50.938Z,3.78
2022-10-21T07:31:22.465Z,2.83
2022-10-21T07:33:50.571Z,3.65
2022-10-21T07:36:23.371Z,2.33
2022-10-21T07:38:52.956Z,2.33
2022-10-21T07:41:24.703Z,3.10
2022-10-21T07:43:53.905Z,3.00
2022-10-21T07:46:23.219Z,2.53
2022-10-21T07:48:52.235Z,3.00
2022-10-21T07:51:28.378Z,2.40
2022-10-21T07:53:59.923Z,2.53
2022-10-21T07:56:31.380Z,2.33
2022-10-21T07:59:01.405Z,3.38
2022-10-21T08:01:30.179Z,2.17
2022-10-21T08:03:59.632Z,2.10
2022-10-21T08:06:29.661Z,2.63
2022-10-21T08:08:58.358Z,2.75
2022-10-21T08:11:29.199Z,2.08
2022-10-21T08:13:57.804Z,2.33
2022-10-21T08:16:26.539Z,2.10
2022-10-21T08:18:55.574Z,1.88
2022-10-21T08:21:23.410Z,2.30
2022-10-21T08:23:52.500Z,2.20
2022-10-21T08:26:20.520Z,1.90
2022-10-21T08:28:48.259Z,2.50
2022-10-21T08:31:18.858Z,2.55
2022-10-21T08:33:47.640Z,2.40
2022-10-21T08:36:18.622Z,2.58
2022-10-21T08:38:46.851Z,2.20
2022-10-21T08:42:17.535Z,2.80
2022-10-21T08:44:56.435Z,2.05
2022-10-21T08:47:36.863Z,1.98
2022-10-21T08:50:12.740Z,2.28
2022-10-21T08:52:45.642Z,2.42
2022-10-21T08:55:20.364Z,2.50
2022-10-21T08:57:51.412Z,2.28
2022-10-21T09:00:22.779Z,2.60
2022-10-21T09:03:20.564Z,1.77
2022-10-21T09:06:11.826Z,1.38
2022-10-21T09:08:57.394Z,1.55
2022-10-21T09:11:39.321Z,1.98
2022-10-21T09:14:46.980Z,1.25
2022-10-21T09:17:35.385Z,2.10
2022-10-21T09:20:23.959Z,2.13
2022-10-21T09:23:11.925Z,2.05
2022-10-21T09:25:51.286Z,1.77
2022-10-21T09:28:19.162Z,1.70
2022-10-21T09:30:49.011Z,1.70
2022-10-21T09:33:24.270Z,1.90
2022-10-21T09:36:00.688Z,1.52
2022-10-21T09:38:42.156Z,2.13
2022-10-21T09:41:18.672Z,1.38
2022-10-21T09:43:46.635Z,1.63
2022-10-21T09:46:17.573Z,1.88
2022-10-21T09:51:40.072Z,1.90
2022-10-21T09:54:14.549Z,1.40
2022-10-21T09:56:50.345Z,1.75
2022-10-21T09:59:22.517Z,1.65
2022-10-21T10:01:52.471Z,1.70
2022-10-21T10:04:26.755Z,1.95
2022-10-21T10:06:54.505Z,2.13
2022-10-21T10:09:29.419Z,1.80
2022-10-21T10:12:03.255Z,2.38
2022-10-21T10:14:35.897Z,2.00
2022-10-21T10:17:30.496Z,1.92
2022-10-21T10:20:16.001Z,1.45
2022-10-21T10:22:47.720Z,2.25
2022-10-21T10:25:24.144Z,1.40
2022-10-21T10:27:55.633Z,1.65
2022-10-21T10:30:25.604Z,1.80
2022-10-21T10:32:57.682Z,1.65
2022-10-21T10:35:32.708Z,1.50
2022-10-21T10:38:02.571Z,1.90
2022-10-21T10:40:39.369Z,1.90
2022-10-21T10:43:15.784Z,1.83
2022-10-21T10:45:52.928Z,2.00
2022-10-21T10:48:28.246Z,1.70
2022-10-21T10:50:57.066Z,1.48
2022-10-21T10:53:31.730Z,1.38
2022-10-21T10:56:20.498Z,2.03
2022-10-21T10:58:57.802Z,2.00
2022-10-21T11:01:35.745Z,1.65
2022-10-21T11:04:17.383Z,1.95
2022-10-21T11:06:53.305Z,2.10
2022-10-21T11:09:23.897Z,1.70
2022-10-21T11:11:56.314Z,1.95
2022-10-21T11:14:24.392Z,1.58
2022-10-21T11:17:05.147Z,1.38
2022-10-21T11:19:50.138Z,1.60
2022-10-21T11:22:41.910Z,1.83
2022-10-21T11:25:23.228Z,2.45
2022-10-21T11:28:17.610Z,1.73
2022-10-21T11:31:16.198Z,1.83
2022-10-21T11:33:56.333Z,1.98
2022-10-21T11:36:37.079Z,2.00
2022-10-21T11:39:40.225Z,1.67
2022-10-21T11:42:19.522Z,1.58
2022-10-21T11:45:21.258Z,1.55
2022-10-21T11:47:58.793Z,1.92
2022-10-21T11:50:38.348Z,1.45
2022-10-21T11:53:31.963Z,1.70
2022-10-21T11:56:17.996Z,2.28
2022-10-21T11:59:01.609Z,1.60
2022-10-21T12:01:45.086Z,2.33
2022-10-21T12:04:38.803Z,1.88
2022-10-21T12:07:24.900Z,2.13
2022-10-21T12:10:05.136Z,2.63
2022-10-21T12:12:39.375Z,2.05
2022-10-21T12:17:49.063Z,2.30
2022-10-21T12:20:24.161Z,1.80
2022-10-21T12:23:00.265Z,2.20
2022-10-21T12:25:43.543Z,3.03
2022-10-21T12:28:21.743Z,2.72
2022-10-21T12:30:59.787Z,2.05
2022-10-21T12:33:38.804Z,2.10
2022-10-21T12:36:20.717Z,3.58
2022-10-21T12:38:53.176Z,2.40
2022-10-21T12:41:38.469Z,1.95
2022-10-21T12:44:21.856Z,2.35
2022-10-21T12:46:53.698Z,2.13
2022-10-21T12:49:30.440Z,2.10
2022-10-21T12:52:09.333Z,2.47
2022-10-21T12:54:53.624Z,2.08
2022-10-21T12:57:31.341Z,2.25
2022-10-21T13:00:32.434Z,2.30
2022-10-21T13:03:03.614Z,2.78
2022-10-21T13:06:03.025Z,2.42
2022-10-21T13:08:51.342Z,2.10
2022-10-21T13:11:39.418Z,2.25
2022-10-21T13:14:41.845Z,2.92
2022-10-21T13:17:52.224Z,2.30
2022-10-21T13:20:49.066Z,2.58
2022-10-21T13:23:39.127Z,2.22
2022-10-21T13:26:20.759Z,2.45
2022-10-21T13:29:06.168Z,2.28
2022-10-21T13:31:35.905Z,2.42
2022-10-21T13:34:04.276Z,2.00
2022-10-21T13:36:41.261Z,2.25
2022-10-21T13:39:26.754Z,2.28
2022-10-21T13:42:04.716Z,2.30
2022-10-21T13:44:38.926Z,2.45
2022-10-21T13:47:28.156Z,2.08
2022-10-21T13:50:03.325Z,2.60
2022-10-21T13:52:31.731Z,2.30
2022-10-21T13:55:01.452Z,1.60
2022-10-21T13:57:31.258Z,2.00
2022-10-21T14:00:05.948Z,2.00
2022-10-21T14:02:35.663Z,1.23
2022-10-21T14:05:03.483Z,1.67
2022-10-21T14:07:31.288Z,1.25
2022-10-21T14:09:59.852Z,1.25
2022-10-21T14:12:34.517Z,2.05
2022-10-21T14:15:12.881Z,1.65
2022-10-21T14:17:49.660Z,1.77
2022-10-21T14:20:26.078Z,2.35
2022-10-21T14:22:55.521Z,1.30
2022-10-21T14:25:23.366Z,1.40
2022-10-21T14:27:51.416Z,1.55
2022-10-21T14:30:23.217Z,1.50
2022-10-21T14:32:53.395Z,1.55
2022-10-21T14:35:29.419Z,1.35
2022-10-21T14:37:59.588Z,1.00
2022-10-21T14:40:32.745Z,1.48
2022-10-21T14:43:04.416Z,1.33
2022-10-21T14:45:36.282Z,1.48
2022-10-21T14:48:24.158Z,1.42
2022-10-21T14:50:55.947Z,1.40
2022-10-21T14:53:25.328Z,1.40
2022-10-21T14:55:58.276Z,1.40
2022-10-21T14:58:32.769Z,1.40
2022-10-21T15:03:41.870Z,1.70
2022-10-21T15:06:14.628Z,1.10
2022-10-21T15:08:45.734Z,0.85
2022-10-21T15:11:24.216Z,1.38
2022-10-21T15:14:28.559Z,0.93
2022-10-21T15:16:59.380Z,1.45
2022-10-21T15:19:43.109Z,1.40
2022-10-21T15:22:25.989Z,0.98
2022-10-21T15:24:59.642Z,1.35
2022-10-21T15:27:36.982Z,0.77
2022-10-21T15:30:15.044Z,1.70
2022-10-21T15:32:42.820Z,1.13
2022-10-21T15:35:18.113Z,1.10
2022-10-21T15:37:49.129Z,1.05
2022-10-21T15:40:18.436Z,1.25
2022-10-21T15:42:47.196Z,1.25
2022-10-21T15:45:17.418Z,1.55
2022-10-21T15:47:45.370Z,1.42
2022-10-21T15:50:19.443Z,1.20
2022-10-21T15:52:47.460Z,1.70
2022-10-21T15:55:15.468Z,1.25
2022-10-21T15:57:44.453Z,1.13
2022-10-21T16:00:19.175Z,1.23
2022-10-21T16:02:47.927Z,1.38
2022-10-21T16:05:17.316Z,1.20
2022-10-21T16:07:46.764Z,1.48
2022-10-21T16:10:21.168Z,1.05
2022-10-21T16:12:49.618Z,1.33
2022-10-21T16:15:18.898Z,1.77
2022-10-21T16:17:50.357Z,1.60
2022-10-21T16:20:23.935Z,1.88
2022-10-21T16:22:52.420Z,1.17
2022-10-21T16:25:20.673Z,1.30
2022-10-21T16:27:56.115Z,1.65
2022-10-21T16:30:28.018Z,1.33
2022-10-21T16:32:57.061Z,1.23
2022-10-21T16:35:26.956Z,1.17
2022-10-21T16:37:55.633Z,1.20
2022-10-21T16:40:29.309Z,1.58
2022-10-21T16:42:57.057Z,1.53
2022-10-21T16:45:31.143Z,1.80
2022-10-21T16:48:01.448Z,2.22
2022-10-21T16:50:40.500Z,1.38
2022-10-21T16:53:13.621Z,1.75
2022-10-21T16:55:41.356Z,1.98
2022-10-21T16:58:09.276Z,1.70
2022-10-21T17:00:37.363Z,2.83
2022-10-21T17:03:05.539Z,2.60
2022-10-21T17:05:35.486Z,2.17
2022-10-21T17:08:03.609Z,1.45
2022-10-21T17:10:31.329Z,2.05
2022-10-21T17:12:59.962Z,1.60
2022-10-21T17:15:32.204Z,1.95
2022-10-21T17:18:00.348Z,2.00
2022-10-21T17:20:30.409Z,1.95
2022-10-21T17:23:00.861Z,1.85
2022-10-21T17:25:30.584Z,2.33
2022-10-21T17:27:58.926Z,2.30
2022-10-21T17:30:26.941Z,1.77
2022-10-21T17:32:54.830Z,1.63
2022-10-21T17:35:22.803Z,2.20
2022-10-21T17:37:52.928Z,1.20
2022-10-21T17:40:25.543Z,1.63
2022-10-21T17:42:54.209Z,2.58
2022-10-21T17:45:23.165Z,2.17
2022-10-21T17:47:53.042Z,1.67
2022-10-21T17:50:24.234Z,2.15
2022-10-21T17:52:55.349Z,2.50
2022-10-21T17:55:24.772Z,2.17
2022-10-21T17:57:52.490Z,1.90
2022-10-21T18:00:20.419Z,2.08
2022-10-21T18:02:48.302Z,2.30
2022-10-21T18:05:16.477Z,1.92
2022-10-21T18:07:44.531Z,2.03
2022-10-21T18:10:12.330Z,1.65
2022-10-21T18:12:41.753Z,2.03
2022-10-21T18:15:10.467Z,2.13
2022-10-21T18:17:39.892Z,2.35
2022-10-21T18:20:09.992Z,1.70
2022-10-21T18:22:38.020Z,2.10
2022-10-21T18:25:07.079Z,1.83
2022-10-21T18:27:34.835Z,2.45
2022-10-21T18:30:06.189Z,1.92
2022-10-21T18:32:34.323Z,2.00
2022-10-21T18:35:02.236Z,2.85
2022-10-21T18:37:31.426Z,2.63
2022-10-21T18:39:59.400Z,2.42
2022-10-21T18:42:27.156Z,2.35
2022-10-21T18:44:54.913Z,2.42
2022-10-21T18:47:24.082Z,2.83
2022-10-21T18:49:51.796Z,2.15
2022-10-21T18:52:19.525Z,2.30
2022-10-21T18:54:47.257Z,2.88
2022-10-21T18:57:15.228Z,2.80
2022-10-21T18:59:42.971Z,2.58
2022-10-21T19:02:19.537Z,2.58
2022-10-21T19:04:49.078Z,2.53
2022-10-21T19:07:17.500Z,2.33
2022-10-21T19:09:46.646Z,3.55
2022-10-21T19:12:17.418Z,3.08
2022-10-21T19:14:47.872Z,2.28
2022-10-21T19:17:15.686Z,2.30
2022-10-21T19:19:43.455Z,3.13
2022-10-21T19:22:14.412Z,2.97
2022-10-21T19:24:42.149Z,2.25
2022-10-21T19:27:10.162Z,2.30
2022-10-21T19:29:37.930Z,2.38
2022-10-21T19:32:06.105Z,2.10
2022-10-21T19:34:33.832Z,2.83
2022-10-21T19:37:01.648Z,2.35
2022-10-21T19:39:30.932Z,2.28
2022-10-21T19:41:59.485Z,2.35
2022-10-21T19:44:27.298Z,2.30
2022-10-21T19:46:55.022Z,2.70
2022-10-21T19:49:22.816Z,2.28
2022-10-21T19:51:50.538Z,2.38
2022-10-21T19:54:19.077Z,2.20
2022-10-21T19:56:48.301Z,2.55
2022-10-21T19:59:16.062Z,1.95
2022-10-21T20:01:43.879Z,1.98
2022-10-21T20:04:11.714Z,2.35
2022-10-21T20:06:40.047Z,2.28
2022-10-21T20:09:11.828Z,2.53
2022-10-21T20:11:41.771Z,2.50
2022-10-21T20:14:13.804Z,2.08
2022-10-21T20:16:43.458Z,2.15
2022-10-21T20:19:12.336Z,1.83
2022-10-21T20:21:40.624Z,2.42
2022-10-21T20:24:09.656Z,2.45
2022-10-21T20:29:13.110Z,1.92
2022-10-21T20:31:40.958Z,2.50
2022-10-21T20:34:08.694Z,2.30
2022-10-21T20:36:36.398Z,2.63
2022-10-21T20:39:04.662Z,2.33
2022-10-21T20:41:37.195Z,2.50
2022-10-21T20:44:08.634Z,2.47
2022-10-21T20:46:38.426Z,2.42
2022-10-21T20:49:07.818Z,2.63
2022-10-21T20:51:38.821Z,2.38
2022-10-21T20:54:09.747Z,2.15
2022-10-21T20:56:40.336Z,1.90
2022-10-21T20:59:10.693Z,2.45
2022-10-21T21:01:43.482Z,2.33
2022-10-21T21:04:14.282Z,2.13
2022-10-21T21:06:45.118Z,2.25
2022-10-21T21:09:44.027Z,2.50
2022-10-21T21:12:03.148Z,2.45
2022-10-21T21:14:31.464Z,2.85
2022-10-21T21:17:00.608Z,2.47
2022-10-21T21:19:28.376Z,2.30
2022-10-21T21:21:56.177Z,2.45
2022-10-21T21:24:23.939Z,3.30
2022-10-21T21:26:51.785Z,3.17
2022-10-21T21:29:19.474Z,2.75
2022-10-21T21:31:47.197Z,4.90
2022-10-21T21:34:16.414Z,3.20
2022-10-21T21:36:44.086Z,4.63
2022-10-21T21:41:45.871Z,2.92
2022-10-21T21:44:13.662Z,2.78
2022-10-21T21:46:41.409Z,2.63
2022-10-21T21:49:09.208Z,2.67
2022-10-21T21:51:38.283Z,2.67
2022-10-21T21:54:08.298Z,3.03
2022-10-21T21:56:36.182Z,2.40
2022-10-21T21:59:05.007Z,2.80
2022-10-21T22:01:32.874Z,2.63
2022-10-21T22:04:01.540Z,2.47
2022-10-21T22:06:33.175Z,2.78
2022-10-21T22:09:03.866Z,2.58
2022-10-21T22:11:33.582Z,2.85
2022-10-21T22:14:01.669Z,2.55
2022-10-21T22:16:30.860Z,2.55
2022-10-21T22:19:01.115Z,2.72
2022-10-21T22:21:30.595Z,2.80
2022-10-21T22:23:59.122Z,2.42
2022-10-21T22:26:29.677Z,2.13
2022-10-21T22:28:57.425Z,1.85
2022-10-21T22:31:29.305Z,2.22
2022-10-21T22:34:01.038Z,2.42
2022-10-21T22:36:28.975Z,2.15
2022-10-21T22:38:56.691Z,2.35
2022-10-21T22:41:24.579Z,2.15
2022-10-21T22:43:53.665Z,2.38
2022-10-21T22:46:32.910Z,2.13
2022-10-21T22:49:02.354Z,1.13
2022-10-21T22:51:30.102Z,1.48
2022-10-21T22:53:57.856Z,1.40
2022-10-21T22:56:27.662Z,1.23
2022-10-21T22:58:57.698Z,0.80
2022-10-21T23:01:28.739Z,1.20
2022-10-21T23:03:57.061Z,0.68
2022-10-21T23:06:24.932Z,1.02
2022-10-21T23:08:52.745Z,1.08
2022-10-21T23:11:20.616Z,1.13
2022-10-21T23:14:02.112Z,1.83
2022-10-21T23:16:33.069Z,1.38
2022-10-21T23:19:00.876Z,1.35
2022-10-21T23:21:29.187Z,1.95
2022-10-21T23:23:57.039Z,1.42
2022-10-21T23:26:24.902Z,1.50
2022-10-21T23:28:52.743Z,1.42
2022-10-21T23:31:20.745Z,1.10
2022-10-21T23:33:49.839Z,1.05
2022-10-21T23:36:17.561Z,1.08
2022-10-21T23:38:45.305Z,0.60
2022-10-21T23:41:13.059Z,0.88
2022-10-21T23:43:40.788Z,0.77
2022-10-21T23:46:08.461Z,0.60
2022-10-21T23:48:36.541Z,1.02
2022-10-21T23:51:06.302Z,0.77
2022-10-21T23:53:34.386Z,0.45
2022-10-21T23:56:02.086Z,0.50
2022-10-21T23:58:30.006Z,0.65
